createdAt,value
2022-11-20T00:01:17.662Z,96.30
2022-11-20T00:05:21.760Z,96.40
2022-11-20T00:09:25.923Z,96.30
2022-11-20T00:13:28.719Z,96.60
2022-11-20T00:17:31.565Z,96.60
2022-11-20T00:21:34.517Z,96.50
2022-11-20T00:25:38.639Z,96.50
2022-11-20T00:29:41.486Z,96.50
2022-11-20T00:33:45.681Z,96.50
2022-11-20T00:37:48.443Z,96.70
2022-11-20T00:41:52.579Z,96.70
2022-11-20T00:45:58.976Z,96.60
2022-11-20T00:50:01.812Z,96.40
2022-11-20T00:54:04.993Z,96.40
2022-11-20T00:58:14.166Z,96.40
2022-11-20T01:02:17.604Z,96.30
2022-11-20T01:06:22.346Z,96.20
2022-11-20T01:10:25.160Z,96.20
2022-11-20T01:14:29.356Z,96.10
2022-11-20T01:18:32.147Z,96.00
2022-11-20T01:22:34.996Z,96.00
2022-11-20T01:26:40.428Z,96.20
2022-11-20T01:30:44.573Z,96.20
2022-11-20T01:34:47.395Z,96.20
2022-11-20T01:38:52.671Z,96.20
2022-11-20T01:43:24.673Z,96.20
2022-11-20T01:47:37.107Z,96.40
2022-11-20T01:51:43.980Z,96.50
2022-11-20T01:55:50.206Z,96.50
2022-11-20T01:59:57.466Z,96.60
2022-11-20T02:04:02.583Z,96.60
2022-11-20T02:08:07.660Z,96.80
2022-11-20T02:12:30.563Z,96.80
2022-11-20T02:16:37.405Z,96.80
2022-11-20T02:20:44.081Z,96.70
2022-11-20T02:24:51.296Z,96.70
2022-11-20T02:28:54.170Z,96.70
2022-11-20T02:32:57.011Z,97.10
2022-11-20T02:37:01.516Z,96.60
2022-11-20T02:41:05.867Z,96.70
2022-11-20T02:45:09.671Z,96.80
2022-11-20T02:49:12.506Z,97.00
2022-11-20T02:53:15.436Z,97.10
2022-11-20T02:57:19.798Z,97.20
2022-11-20T03:01:22.651Z,97.00
2022-11-20T03:05:25.523Z,97.10
2022-11-20T03:09:28.441Z,97.10
2022-11-20T03:13:32.554Z,97.20
2022-11-20T03:17:35.865Z,97.10
2022-11-20T03:21:38.684Z,97.10
2022-11-20T03:25:41.539Z,97.20
2022-11-20T03:29:45.754Z,97.20
2022-11-20T03:33:48.754Z,97.50
2022-11-20T03:37:51.570Z,97.60
2022-11-20T03:41:54.463Z,97.30
2022-11-20T03:45:59.151Z,97.30
2022-11-20T03:50:01.938Z,97.30
2022-11-20T03:54:07.641Z,97.20
2022-11-20T03:58:10.561Z,97.30
2022-11-20T04:02:14.797Z,97.30
2022-11-20T04:06:20.155Z,97.20
2022-11-20T04:10:22.952Z,97.20
2022-11-20T04:14:25.930Z,97.10
2022-11-20T04:18:30.079Z,97.20
2022-11-20T04:22:32.840Z,97.20
2022-11-20T04:26:36.246Z,97.30
2022-11-20T04:30:39.116Z,97.30
2022-11-20T04:34:43.253Z,97.20
2022-11-20T04:38:46.724Z,97.20
2022-11-20T04:42:49.551Z,97.40
2022-11-20T04:46:52.379Z,97.30
2022-11-20T04:50:56.914Z,97.20
2022-11-20T04:54:59.720Z,97.20
2022-11-20T04:59:03.424Z,97.30
2022-11-20T05:03:06.920Z,97.40
2022-11-20T05:07:11.113Z,97.40
2022-11-20T05:11:15.723Z,97.70
2022-11-20T05:15:18.680Z,97.80
2022-11-20T05:19:21.891Z,97.80
2022-11-20T05:23:26.526Z,97.90
2022-11-20T05:27:30.251Z,98.00
2022-11-20T05:31:33.098Z,98.00
2022-11-20T05:35:35.901Z,98.00
2022-11-20T05:39:40.044Z,98.10
2022-11-20T05:43:44.910Z,98.20
2022-11-20T05:47:47.708Z,98.20
2022-11-20T05:51:50.519Z,98.20
2022-11-20T05:56:00.698Z,98.20
2022-11-20T06:00:03.809Z,98.10
2022-11-20T06:04:07.176Z,98.30
2022-11-20T06:08:10.038Z,97.90
2022-11-20T06:12:14.204Z,97.80
2022-11-20T06:16:19.719Z,97.90
2022-11-20T06:20:22.617Z,98.00
2022-11-20T06:24:26.334Z,98.10
2022-11-20T06:28:30.512Z,98.10
2022-11-20T06:32:34.603Z,98.10
2022-11-20T06:36:37.472Z,98.10
2022-11-20T06:40:42.596Z,98.00
2022-11-20T06:44:46.886Z,98.10
2022-11-20T06:48:50.706Z,98.00
2022-11-20T06:52:53.508Z,98.00
2022-11-20T06:56:56.288Z,98.00
2022-11-20T07:01:01.820Z,98.10
2022-11-20T07:05:05.130Z,98.00
2022-11-20T07:09:22.041Z,98.20
2022-11-20T07:13:24.954Z,98.10
2022-11-20T07:17:29.260Z,98.20
2022-11-20T07:21:32.074Z,98.30
2022-11-20T07:25:34.906Z,98.40
2022-11-20T07:29:37.698Z,98.30
2022-11-20T07:33:41.838Z,98.20
2022-11-20T07:37:46.552Z,98.20
2022-11-20T07:41:49.348Z,98.40
2022-11-20T07:45:52.287Z,98.50
2022-11-20T07:49:56.395Z,98.60
2022-11-20T07:53:59.204Z,98.70
2022-11-20T07:58:02.081Z,98.60
2022-11-20T08:02:04.923Z,98.60
2022-11-20T08:06:10.210Z,98.70
2022-11-20T08:10:15.221Z,98.60
2022-11-20T08:14:18.086Z,98.70
2022-11-20T08:18:31.310Z,98.80
2022-11-20T08:22:36.516Z,98.90
2022-11-20T08:26:40.475Z,99.00
2022-11-20T08:30:43.328Z,99.10
2022-11-20T08:34:47.271Z,99.30
2022-11-20T08:38:52.509Z,99.20
2022-11-20T08:42:55.436Z,99.30
2022-11-20T08:46:58.600Z,99.40
2022-11-20T08:51:01.668Z,99.40
2022-11-20T08:55:07.835Z,99.40
2022-11-20T08:59:23.408Z,99.50
2022-11-20T09:03:32.970Z,99.40
2022-11-20T09:07:35.994Z,99.40
2022-11-20T09:11:40.247Z,99.30
2022-11-20T09:15:43.103Z,99.40
2022-11-20T09:19:46.384Z,99.40
2022-11-20T09:23:49.647Z,99.10
2022-11-20T09:27:58.632Z,98.60
2022-11-20T09:32:01.612Z,97.70
2022-11-20T09:36:04.783Z,97.10
2022-11-20T09:40:08.961Z,97.20
2022-11-20T09:44:26.507Z,96.70
2022-11-20T09:48:41.685Z,96.70
2022-11-20T09:52:52.352Z,96.40
2022-11-20T09:57:00.628Z,96.20
2022-11-20T10:01:11.587Z,95.80
2022-11-20T10:05:20.389Z,95.90
2022-11-20T10:09:27.929Z,95.60
2022-11-20T10:13:41.900Z,95.70
2022-11-20T10:18:16.516Z,95.80
2022-11-20T10:22:34.628Z,95.70
2022-11-20T10:26:46.768Z,95.60
2022-11-20T10:30:57.359Z,95.50
2022-11-20T10:35:06.786Z,95.60
2022-11-20T10:39:20.712Z,95.20
2022-11-20T10:43:34.159Z,95.30
2022-11-20T10:47:37.458Z,95.20
2022-11-20T10:51:52.200Z,95.10
2022-11-20T10:56:00.423Z,95.10
2022-11-20T11:00:07.566Z,95.20
2022-11-20T11:04:28.645Z,95.10
2022-11-20T11:08:40.030Z,94.90
2022-11-20T11:12:47.369Z,94.60
2022-11-20T11:16:54.431Z,94.60
2022-11-20T11:20:58.535Z,94.60
2022-11-20T11:25:03.782Z,94.50
2022-11-20T11:29:06.653Z,94.40
2022-11-20T11:33:13.534Z,94.00
2022-11-20T11:37:20.316Z,94.20
2022-11-20T11:41:27.535Z,93.90
2022-11-20T11:45:30.559Z,93.30
2022-11-20T11:49:33.423Z,93.40
2022-11-20T11:53:41.645Z,93.20
2022-11-20T11:57:51.836Z,92.90
2022-11-20T12:01:59.531Z,92.60
2022-11-20T12:06:09.652Z,92.50
2022-11-20T12:10:22.982Z,92.30
2022-11-20T12:14:35.145Z,91.90
2022-11-20T12:18:37.983Z,92.10
2022-11-20T12:22:51.373Z,91.90
2022-11-20T12:27:07.349Z,92.10
2022-11-20T12:31:41.297Z,92.10
2022-11-20T12:36:04.184Z,92.20
2022-11-20T12:40:24.846Z,92.30
2022-11-20T12:45:11.300Z,92.00
2022-11-20T12:49:30.454Z,92.20
2022-11-20T12:53:42.561Z,92.00
2022-11-20T12:57:52.166Z,91.90
2022-11-20T13:02:00.850Z,91.80
2022-11-20T13:06:13.266Z,91.70
2022-11-20T13:10:22.855Z,91.10
2022-11-20T13:14:36.680Z,90.80
2022-11-20T13:18:43.405Z,90.70
2022-11-20T13:22:50.063Z,90.20
2022-11-20T13:27:03.190Z,90.00
2022-11-20T13:31:06.434Z,89.70
2022-11-20T13:35:13.630Z,89.10
2022-11-20T13:39:29.497Z,89.50
2022-11-20T13:43:44.695Z,89.10
2022-11-20T13:47:50.655Z,88.10
2022-11-20T13:52:04.217Z,87.50
2022-11-20T13:56:18.966Z,87.20
2022-11-20T14:00:23.603Z,87.20
2022-11-20T14:04:30.822Z,87.30
2022-11-20T14:08:40.182Z,88.40
2022-11-20T14:12:44.509Z,88.50
2022-11-20T14:16:47.887Z,88.60
2022-11-20T14:20:51.391Z,88.30
2022-11-20T14:25:05.790Z,89.20
2022-11-20T14:29:15.256Z,88.60
2022-11-20T14:33:20.737Z,88.60
2022-11-20T14:37:26.744Z,89.20
2022-11-20T14:41:30.285Z,90.00
2022-11-20T14:45:34.615Z,90.00
2022-11-20T14:49:38.405Z,90.10
2022-11-20T14:53:41.292Z,90.20
2022-11-20T14:57:44.144Z,90.50
2022-11-20T15:01:58.862Z,90.30
2022-11-20T15:06:02.079Z,90.70
2022-11-20T15:10:07.777Z,90.80
2022-11-20T15:14:11.834Z,90.80
2022-11-20T15:18:18.090Z,90.80
2022-11-20T15:22:20.906Z,90.80
2022-11-20T15:26:26.963Z,90.70
2022-11-20T15:30:29.764Z,90.90
2022-11-20T15:34:33.985Z,90.60
2022-11-20T15:38:36.834Z,90.80
2022-11-20T15:42:59.668Z,90.90
2022-11-20T15:47:02.648Z,90.80
2022-11-20T15:51:15.076Z,90.60
2022-11-20T15:55:17.914Z,90.50
2022-11-20T15:59:21.230Z,90.70
2022-11-20T16:03:24.869Z,90.90
2022-11-20T16:07:29.147Z,91.00
2022-11-20T16:11:32.206Z,91.30
2022-11-20T16:15:46.530Z,91.00
2022-11-20T16:19:49.355Z,91.00
2022-11-20T16:23:53.575Z,91.00
2022-11-20T16:27:56.464Z,90.90
2022-11-20T16:31:59.285Z,90.80
2022-11-20T16:36:09.223Z,90.90
2022-11-20T16:40:14.020Z,90.80
2022-11-20T16:44:17.018Z,91.00
2022-11-20T16:48:19.848Z,91.20
2022-11-20T16:52:22.732Z,91.30
2022-11-20T16:56:28.306Z,91.60
2022-11-20T17:00:31.333Z,91.80
2022-11-20T17:04:34.204Z,92.10
2022-11-20T17:08:37.363Z,92.30
2022-11-20T17:12:44.491Z,92.50
2022-11-20T17:16:47.826Z,92.70
2022-11-20T17:20:53.209Z,92.90
2022-11-20T17:24:56.160Z,93.20
2022-11-20T17:29:02.051Z,93.50
2022-11-20T17:33:05.126Z,94.00
2022-11-20T17:37:08.219Z,94.60
2022-11-20T17:41:12.894Z,95.40
2022-11-20T17:45:17.216Z,95.90
2022-11-20T17:49:22.896Z,96.30
2022-11-20T17:53:27.003Z,96.80
2022-11-20T17:57:43.772Z,97.10
2022-11-20T18:01:48.388Z,97.60
2022-11-20T18:05:51.323Z,98.00
2022-11-20T18:09:54.227Z,98.20
2022-11-20T18:14:16.908Z,98.40
2022-11-20T18:18:21.074Z,98.70
2022-11-20T18:22:23.998Z,99.00
2022-11-20T18:26:27.742Z,99.10
2022-11-20T18:30:30.646Z,99.10
2022-11-20T18:34:34.814Z,99.20
2022-11-20T18:38:40.582Z,99.30
2022-11-20T18:43:01.151Z,99.30
2022-11-20T18:47:09.574Z,99.30
2022-11-20T18:51:18.115Z,99.40
2022-11-20T18:55:24.231Z,99.50
2022-11-20T18:59:27.453Z,99.50
2022-11-20T19:03:30.728Z,99.80
2022-11-20T19:07:34.970Z,99.80
2022-11-20T19:11:38.484Z,99.80
2022-11-20T19:15:41.350Z,99.90
2022-11-20T19:19:44.355Z,99.90
2022-11-20T19:23:50.828Z,99.90
2022-11-20T19:27:53.735Z,99.90
2022-11-20T19:31:57.036Z,99.90
2022-11-20T19:36:09.653Z,99.90
2022-11-20T19:40:14.065Z,99.90
2022-11-20T19:44:18.094Z,99.90
2022-11-20T19:48:20.904Z,99.90
2022-11-20T19:52:23.706Z,99.90
2022-11-20T19:56:29.525Z,99.90
2022-11-20T20:00:33.131Z,99.90
2022-11-20T20:04:35.992Z,99.90
2022-11-20T20:08:39.248Z,99.90
2022-11-20T20:12:43.458Z,99.90
2022-11-20T20:16:46.424Z,99.90
2022-11-20T20:20:49.247Z,99.90
2022-11-20T20:24:52.184Z,99.90
2022-11-20T20:28:56.939Z,99.90
2022-11-20T20:32:59.747Z,99.90
2022-11-20T20:37:03.935Z,99.90
2022-11-20T20:41:06.843Z,99.90
2022-11-20T20:45:12.011Z,99.90
2022-11-20T20:49:14.833Z,99.90
2022-11-20T20:53:17.658Z,99.90
2022-11-20T20:57:20.796Z,99.90
2022-11-20T21:01:28.549Z,99.90
2022-11-20T21:05:31.572Z,99.90
2022-11-20T21:09:34.486Z,99.90
2022-11-20T21:13:39.140Z,99.90
2022-11-20T21:17:44.284Z,99.90
2022-11-20T21:22:03.123Z,99.90
2022-11-20T21:26:08.441Z,99.90
2022-11-20T21:30:12.321Z,99.90
2022-11-20T21:34:17.492Z,99.90
2022-11-20T21:38:20.362Z,99.90
2022-11-20T21:42:23.225Z,99.90
2022-11-20T21:46:26.141Z,99.90
2022-11-20T21:50:30.361Z,99.90
2022-11-20T21:54:35.687Z,99.90
2022-11-20T21:58:39.815Z,99.90
2022-11-20T22:02:42.682Z,99.90
2022-11-20T22:06:46.870Z,99.90
2022-11-20T22:10:55.768Z,99.90
2022-11-20T22:14:58.604Z,99.90
2022-11-20T22:19:01.599Z,99.90
2022-11-20T22:23:08.039Z,99.90
2022-11-20T22:27:11.600Z,99.90
2022-11-20T22:31:14.402Z,99.90
2022-11-20T22:35:17.216Z,99.90
2022-11-20T22:39:22.752Z,99.90
2022-11-20T22:43:25.548Z,99.90
2022-11-20T22:47:28.471Z,99.90
2022-11-20T22:51:33.293Z,99.90
2022-11-20T22:55:37.627Z,99.90
2022-11-20T22:59:41.489Z,99.90
2022-11-20T23:03:47.031Z,99.90
2022-11-20T23:07:51.536Z,99.90
2022-11-20T23:11:55.841Z,99.90
2022-11-20T23:16:04.645Z,99.90
2022-11-20T23:20:09.098Z,99.90
2022-11-20T23:24:12.825Z,99.90
2022-11-20T23:28:16.975Z,99.90
2022-11-20T23:32:19.851Z,99.90
2022-11-20T23:36:23.160Z,99.90
2022-11-20T23:40:25.994Z,99.90
2022-11-20T23:44:30.385Z,99.90
2022-11-20T23:48:35.525Z,99.90
2022-11-20T23:52:38.319Z,99.90
2022-11-20T23:56:41.180Z,99.90
